LGX37B LIPZ-LIRA
Flight info
| Callsign | LGX37B |
|---|---|
| Flight time | 0h 37m |
| Altitude | 32000 |
| Route | CHI DCT PIDEP DCT DIPVO DCT NIKMA DCT GITOD |
| Aircraft | B38M/M-SDE1FGHILORVWXY/HB1 |
Departure
| Time | 2026-05-05 15:12 |
|---|---|
| Airport | Venice Marco Polo Airport (LIPZ) |
Arrival
| Time | 2026-05-05 15:49 |
|---|---|
| Airport | Ciampino–G. B. Pastine International Airport (LIRA) |
| Time | Latitude | Longitude | Altitude | Speed | Heading |
|---|---|---|---|---|---|
| 2026-05-05 15:02 | 45.50365 | 12.34172 | 15 ft | 0 kts | 290° |
| 2026-05-05 15:06 | 45.50359 | 12.34199 | 15 ft | 4 kts | 288° |
| 2026-05-05 15:06 | 45.50351 | 12.34235 | 15 ft | 4 kts | 284° |
| 2026-05-05 15:06 | 45.50345 | 12.34273 | 15 ft | 4 kts | 279° |
| 2026-05-05 15:06 | 45.50342 | 12.34311 | 15 ft | 4 kts | 266° |
| 2026-05-05 15:07 | 45.50348 | 12.34344 | 15 ft | 4 kts | 219° |
| 2026-05-05 15:07 | 45.50355 | 12.34351 | 15 ft | 0 kts | 176° |
| 2026-05-05 15:09 | 45.50350 | 12.34351 | 15 ft | 7 kts | 176° |
| 2026-05-05 15:10 | 45.50263 | 12.34359 | 16 ft | 17 kts | 176° |
| 2026-05-05 15:10 | 45.50128 | 12.34334 | 15 ft | 26 kts | 210° |
| 2026-05-05 15:10 | 45.49947 | 12.34106 | 13 ft | 44 kts | 221° |
| 2026-05-05 15:10 | 45.49686 | 12.33771 | 16 ft | 40 kts | 223° |
| 2026-05-05 15:11 | 45.49529 | 12.33749 | 15 ft | 25 kts | 134° |
| 2026-05-05 15:11 | 45.49556 | 12.33957 | 14 ft | 40 kts | 44° |
| 2026-05-05 15:11 | 45.49940 | 12.34453 | 13 ft | 108 kts | 41° |
| 2026-05-05 15:11 | 45.50635 | 12.35354 | 111 ft | 158 kts | 43° |
| 2026-05-05 15:12 | 45.51452 | 12.36581 | 718 ft | 178 kts | 57° |
| 2026-05-05 15:12 | 45.51760 | 12.38184 | 1736 ft | 176 kts | 95° |
| 2026-05-05 15:12 | 45.51253 | 12.39938 | 2113 ft | 219 kts | 128° |
| 2026-05-05 15:12 | 45.49914 | 12.41317 | 2573 ft | 258 kts | 159° |
| 2026-05-05 15:13 | 45.48147 | 12.41656 | 3918 ft | 247 kts | 185° |
| 2026-05-05 15:13 | 45.46462 | 12.40961 | 4888 ft | 271 kts | 211° |
| 2026-05-05 15:13 | 45.45093 | 12.38836 | 4886 ft | 320 kts | 237° |
| 2026-05-05 15:13 | 45.43969 | 12.35653 | 3901 ft | 398 kts | 245° |
| 2026-05-05 15:14 | 45.42731 | 12.32152 | 5245 ft | 395 kts | 234° |
| 2026-05-05 15:14 | 45.40774 | 12.29472 | 6693 ft | 391 kts | 213° |
| 2026-05-05 15:14 | 45.38280 | 12.27990 | 8109 ft | 388 kts | 192° |
| 2026-05-05 15:14 | 45.35606 | 12.27720 | 9488 ft | 384 kts | 181° |
| 2026-05-05 15:15 | 45.32981 | 12.27738 | 10803 ft | 380 kts | 180° |
| 2026-05-05 15:15 | 45.30348 | 12.27841 | 12087 ft | 375 kts | 180° |
| 2026-05-05 15:15 | 45.27758 | 12.27935 | 13314 ft | 371 kts | 181° |
| 2026-05-05 15:15 | 45.25176 | 12.27977 | 14271 ft | 373 kts | 181° |
| 2026-05-05 15:16 | 45.22567 | 12.27983 | 15115 ft | 376 kts | 182° |
| 2026-05-05 15:16 | 45.19937 | 12.27988 | 15902 ft | 380 kts | 181° |
| 2026-05-05 15:16 | 45.17273 | 12.28012 | 16651 ft | 384 kts | 181° |
| 2026-05-05 15:16 | 45.14580 | 12.28049 | 17366 ft | 389 kts | 181° |
| 2026-05-05 15:17 | 45.11899 | 12.28090 | 18052 ft | 393 kts | 181° |
| 2026-05-05 15:17 | 45.09151 | 12.28125 | 18722 ft | 396 kts | 181° |
| 2026-05-05 15:17 | 45.06379 | 12.28149 | 19366 ft | 400 kts | 182° |
| 2026-05-05 15:17 | 45.03579 | 12.28067 | 19983 ft | 404 kts | 184° |
| 2026-05-05 15:18 | 45.00762 | 12.27875 | 20580 ft | 407 kts | 185° |
| 2026-05-05 15:18 | 44.97916 | 12.27657 | 21148 ft | 411 kts | 184° |
| 2026-05-05 15:18 | 44.95047 | 12.27476 | 21701 ft | 415 kts | 184° |
| 2026-05-05 15:18 | 44.92139 | 12.27338 | 22248 ft | 419 kts | 183° |
| 2026-05-05 15:19 | 44.89204 | 12.27213 | 22782 ft | 422 kts | 183° |
| 2026-05-05 15:19 | 44.86254 | 12.27075 | 23304 ft | 426 kts | 184° |
| 2026-05-05 15:19 | 44.83278 | 12.26919 | 23815 ft | 429 kts | 184° |
| 2026-05-05 15:19 | 44.80324 | 12.26755 | 24301 ft | 432 kts | 184° |
| 2026-05-05 15:20 | 44.77302 | 12.26592 | 24781 ft | 436 kts | 184° |
| 2026-05-05 15:20 | 44.74257 | 12.26435 | 25255 ft | 439 kts | 184° |
| 2026-05-05 15:20 | 44.71196 | 12.26283 | 25716 ft | 442 kts | 184° |
| 2026-05-05 15:20 | 44.68110 | 12.26128 | 26156 ft | 445 kts | 184° |
| 2026-05-05 15:21 | 44.65009 | 12.25968 | 26583 ft | 447 kts | 184° |
| 2026-05-05 15:21 | 44.61884 | 12.25804 | 26995 ft | 450 kts | 184° |
| 2026-05-05 15:21 | 44.58743 | 12.25641 | 27400 ft | 453 kts | 184° |
| 2026-05-05 15:21 | 44.55587 | 12.25480 | 27789 ft | 455 kts | 184° |
| 2026-05-05 15:22 | 44.52408 | 12.25320 | 28168 ft | 458 kts | 184° |
| 2026-05-05 15:22 | 44.49254 | 12.25159 | 28540 ft | 460 kts | 184° |
| 2026-05-05 15:22 | 44.46044 | 12.24994 | 28889 ft | 462 kts | 184° |
| 2026-05-05 15:22 | 44.42824 | 12.24830 | 29224 ft | 464 kts | 184° |
| 2026-05-05 15:23 | 44.39583 | 12.24665 | 29554 ft | 467 kts | 184° |
| 2026-05-05 15:23 | 44.36329 | 12.24499 | 29984 ft | 466 kts | 184° |
| 2026-05-05 15:23 | 44.33092 | 12.24335 | 30440 ft | 464 kts | 184° |
| 2026-05-05 15:23 | 44.29863 | 12.24171 | 30882 ft | 463 kts | 184° |
| 2026-05-05 15:24 | 44.26656 | 12.24009 | 31322 ft | 462 kts | 184° |
| 2026-05-05 15:24 | 44.23445 | 12.23848 | 31758 ft | 460 kts | 184° |
| 2026-05-05 15:24 | 44.20241 | 12.23685 | 31989 ft | 463 kts | 185° |
| 2026-05-05 15:25 | 44.13780 | 12.23354 | 32004 ft | 465 kts | 184° |
| 2026-05-05 15:25 | 44.07363 | 12.23035 | 31988 ft | 461 kts | 184° |
| 2026-05-05 15:26 | 44.00976 | 12.22714 | 32001 ft | 458 kts | 185° |
| 2026-05-05 15:26 | 43.94590 | 12.22390 | 32006 ft | 458 kts | 184° |
| 2026-05-05 15:27 | 43.88224 | 12.22074 | 32004 ft | 459 kts | 185° |
| 2026-05-05 15:27 | 43.81845 | 12.21753 | 32007 ft | 458 kts | 185° |
| 2026-05-05 15:28 | 43.75503 | 12.21440 | 32011 ft | 458 kts | 184° |
| 2026-05-05 15:28 | 43.69125 | 12.21126 | 32020 ft | 458 kts | 185° |
| 2026-05-05 15:29 | 43.62751 | 12.20813 | 32010 ft | 458 kts | 185° |
| 2026-05-05 15:29 | 43.56409 | 12.20494 | 32022 ft | 458 kts | 185° |
| 2026-05-05 15:30 | 43.50023 | 12.20175 | 32026 ft | 459 kts | 184° |
| 2026-05-05 15:30 | 43.43630 | 12.20854 | 32024 ft | 463 kts | 176° |
| 2026-05-05 15:31 | 43.37232 | 12.21884 | 32037 ft | 463 kts | 175° |
| 2026-05-05 15:31 | 43.30834 | 12.22969 | 32043 ft | 463 kts | 176° |
| 2026-05-05 15:32 | 43.24434 | 12.23976 | 32060 ft | 463 kts | 176° |
| 2026-05-05 15:32 | 43.18029 | 12.24999 | 31672 ft | 466 kts | 176° |
| 2026-05-05 15:32 | 43.14786 | 12.25524 | 30799 ft | 467 kts | 176° |
| 2026-05-05 15:33 | 43.11568 | 12.26046 | 29858 ft | 466 kts | 176° |
| 2026-05-05 15:33 | 43.08346 | 12.26565 | 28799 ft | 467 kts | 176° |
| 2026-05-05 15:33 | 43.05109 | 12.27080 | 27655 ft | 470 kts | 175° |
| 2026-05-05 15:33 | 43.01849 | 12.27595 | 26391 ft | 472 kts | 175° |
| 2026-05-05 15:34 | 42.98566 | 12.28118 | 25304 ft | 472 kts | 175° |
| 2026-05-05 15:34 | 42.95331 | 12.28637 | 24334 ft | 466 kts | 175° |
| 2026-05-05 15:34 | 42.92138 | 12.29150 | 23345 ft | 459 kts | 175° |
| 2026-05-05 15:34 | 42.89018 | 12.29647 | 22372 ft | 453 kts | 175° |
| 2026-05-05 15:35 | 42.85911 | 12.30139 | 21409 ft | 447 kts | 175° |
| 2026-05-05 15:35 | 42.82843 | 12.30625 | 20461 ft | 440 kts | 175° |
| 2026-05-05 15:35 | 42.79825 | 12.31106 | 19528 ft | 433 kts | 175° |
| 2026-05-05 15:35 | 42.76858 | 12.31655 | 18574 ft | 428 kts | 173° |
| 2026-05-05 15:36 | 42.73943 | 12.32312 | 17631 ft | 422 kts | 172° |
| 2026-05-05 15:36 | 42.71059 | 12.33009 | 16708 ft | 416 kts | 172° |
| 2026-05-05 15:36 | 42.68222 | 12.33663 | 15782 ft | 410 kts | 173° |
| 2026-05-05 15:36 | 42.65455 | 12.34253 | 14871 ft | 405 kts | 173° |
| 2026-05-05 15:37 | 42.62695 | 12.34821 | 13940 ft | 399 kts | 173° |
| 2026-05-05 15:37 | 42.59961 | 12.35391 | 13010 ft | 394 kts | 173° |
| 2026-05-05 15:37 | 42.57269 | 12.35970 | 12098 ft | 390 kts | 172° |
| 2026-05-05 15:37 | 42.54601 | 12.36551 | 11192 ft | 385 kts | 172° |
| 2026-05-05 15:38 | 42.51972 | 12.37122 | 10309 ft | 380 kts | 172° |
| 2026-05-05 15:38 | 42.49376 | 12.37681 | 9610 ft | 371 kts | 172° |
| 2026-05-05 15:38 | 42.46884 | 12.38215 | 9258 ft | 355 kts | 172° |
| 2026-05-05 15:38 | 42.44499 | 12.38724 | 8961 ft | 339 kts | 172° |
| 2026-05-05 15:39 | 42.42227 | 12.39208 | 8724 ft | 323 kts | 172° |
| 2026-05-05 15:39 | 42.40057 | 12.39670 | 8550 ft | 308 kts | 172° |
| 2026-05-05 15:39 | 42.37996 | 12.40110 | 8436 ft | 293 kts | 172° |
| 2026-05-05 15:39 | 42.36037 | 12.40528 | 8364 ft | 278 kts | 172° |
| 2026-05-05 15:40 | 42.34155 | 12.40932 | 8130 ft | 271 kts | 172° |
| 2026-05-05 15:40 | 42.32304 | 12.41326 | 7777 ft | 268 kts | 172° |
| 2026-05-05 15:40 | 42.31083 | 12.41586 | 7555 ft | 267 kts | 172° |
| 2026-05-05 15:40 | 42.29255 | 12.41974 | 7207 ft | 265 kts | 172° |
| 2026-05-05 15:41 | 42.27437 | 12.42360 | 6859 ft | 264 kts | 172° |
| 2026-05-05 15:41 | 42.25628 | 12.42747 | 6511 ft | 263 kts | 171° |
| 2026-05-05 15:41 | 42.23829 | 12.43129 | 6176 ft | 261 kts | 171° |
| 2026-05-05 15:41 | 42.22037 | 12.43509 | 5852 ft | 259 kts | 171° |
| 2026-05-05 15:42 | 42.20252 | 12.43888 | 5469 ft | 259 kts | 171° |
| 2026-05-05 15:42 | 42.18433 | 12.44274 | 4808 ft | 270 kts | 171° |
| 2026-05-05 15:42 | 42.16560 | 12.44673 | 4293 ft | 274 kts | 171° |
| 2026-05-05 15:42 | 42.14701 | 12.45067 | 3868 ft | 274 kts | 171° |
| 2026-05-05 15:43 | 42.12825 | 12.45462 | 3465 ft | 272 kts | 171° |
| 2026-05-05 15:43 | 42.10960 | 12.45858 | 3082 ft | 270 kts | 171° |
| 2026-05-05 15:43 | 42.09118 | 12.46248 | 3036 ft | 263 kts | 171° |
| 2026-05-05 15:43 | 42.07355 | 12.46619 | 3013 ft | 250 kts | 171° |
| 2026-05-05 15:44 | 42.05688 | 12.46973 | 3010 ft | 236 kts | 171° |
| 2026-05-05 15:44 | 42.04051 | 12.47331 | 3016 ft | 249 kts | 171° |
| 2026-05-05 15:44 | 42.02336 | 12.47697 | 3006 ft | 244 kts | 171° |
| 2026-05-05 15:44 | 42.00659 | 12.48041 | 3004 ft | 242 kts | 171° |
| 2026-05-05 15:45 | 41.99001 | 12.48386 | 3011 ft | 240 kts | 171° |
| 2026-05-05 15:45 | 41.97359 | 12.48731 | 3011 ft | 240 kts | 171° |
| 2026-05-05 15:45 | 41.95713 | 12.49078 | 3008 ft | 239 kts | 171° |
| 2026-05-05 15:45 | 41.94135 | 12.49668 | 3007 ft | 239 kts | 158° |
| 2026-05-05 15:46 | 41.92639 | 12.50640 | 2929 ft | 241 kts | 153° |
| 2026-05-05 15:46 | 41.91145 | 12.51704 | 2428 ft | 246 kts | 152° |
| 2026-05-05 15:46 | 41.89678 | 12.52772 | 1774 ft | 229 kts | 152° |
| 2026-05-05 15:46 | 41.88341 | 12.53739 | 1262 ft | 203 kts | 152° |
| 2026-05-05 15:47 | 41.87176 | 12.54574 | 999 ft | 182 kts | 153° |
| 2026-05-05 15:47 | 41.86128 | 12.55323 | 891 ft | 165 kts | 153° |
| 2026-05-05 15:47 | 41.85135 | 12.56009 | 817 ft | 153 kts | 154° |
| 2026-05-05 15:47 | 41.84171 | 12.56590 | 795 ft | 151 kts | 158° |
| 2026-05-05 15:48 | 41.83266 | 12.56981 | 736 ft | 134 kts | 161° |
| 2026-05-05 15:48 | 41.82465 | 12.57559 | 640 ft | 134 kts | 144° |
| 2026-05-05 15:48 | 41.81676 | 12.58248 | 586 ft | 138 kts | 150° |
| 2026-05-05 15:48 | 41.80854 | 12.58845 | 453 ft | 134 kts | 153° |
| 2026-05-05 15:49 | 41.80047 | 12.59412 | 418 ft | 121 kts | 153° |
| 2026-05-05 15:49 | 41.79396 | 12.59858 | 414 ft | 91 kts | 152° |
| 2026-05-05 15:49 | 41.79108 | 12.60050 | 415 ft | 20 kts | 171° |
| 2026-05-05 15:49 | 41.79051 | 12.59905 | 406 ft | 23 kts | 306° |
| 2026-05-05 15:50 | 41.79182 | 12.59799 | 406 ft | 21 kts | 333° |